メインページ
METAR-TAF:

METAR-TAF

空港 :

ダーウィン国際空港

ダーウィン, オーストラリア

緯度: 12-24S, 経度: 130-52E, 海抜: 31m

現時点の気象観測

当レポートは38分前の20:30(UTC)に作成
南東の風 8kt
気温 23°C
湿度 41%
気圧 1012 hPa
視程10km以上
1,500メートル以下は雲なし、積乱雲なし

METAR: YPDN 222030Z 13008KT CAVOK 23/09 Q1012 NOSIG

時間: 06:38 (21:08 UTC)

予報

当レポートは4時間7分前の17:01(UTC)に作成
予報は22日の 18時(UTC)から 23日の 24時(UTC)まで有効
南東の風 8kt
視程10km以上
1,500メートル以下は雲なし、積乱雲なし
23日の 0000時(UTC)から
東/南東の風 14kt
視程10km以上
1,500メートル以下は雲なし、積乱雲なし
23日の 0600時(UTC)から
の風 7kt
視程10km以上
1,500メートル以下は雲なし、積乱雲なし
23日の 1200時(UTC)から
南東の風 6kt
視程10km以上
1,500メートル以下は雲なし、積乱雲なし

TAF: YPDN 221701Z 2218/2324 13008KT CAVOK FM230000 11014KT CAVOK FM230600 08007KT CAVOK FM231200 13006KT CAVOK

4,000以上の空港の気象観測と天気予報(METAR報とTAF報)

利用可能な観測所は地図上に黄色い丸と赤い丸で示す。

丸の上にカーソルを重ねると観測所名を参照できる。

次にクリックすると気象観測と天気予報を参照できる。

マップの切り替え:黒色「×」印の緑ボタンをクリックして拡大、「-」印の緑ボタンをクリックして縮小、緑色の三角印をクリックして隣りの地図に切り替え


METAR-TAF: